Terminal Aerodrome Forecast
Issued by NWS

Home | Current Version | Previous Version | Text Only | Print | Product List | Glossary On
Versions: 1 2 3 4 5 6 7 8 9 10 11 12 13 14 15
000
FTUS45 KABQ 291746
TAFLVS
TAF
KLVS 291746Z 2918/3018 VRB05KT P6SM SCT080 BKN200
     FM291900 20013G21KT P6SM VCSH SCT090 BKN150
     FM300200 03015KT P6SM VCTS SCT070CB BKN120
     FM300500 05013KT P6SM -RA BKN035 OVC050
     FM300800 03008KT P6SM VCSH BKN007=

USA.gov is the U.S. government's official web portal to all federal, state and local government web resources and services.